PDT,Max TemperatureF,Mean TemperatureF,Min TemperatureF,Max Dew PointF,MeanDew PointF,Min DewpointF,Max Humidity, Mean Humidity, Min Humidity, Max Sea Level PressureIn, Mean Sea Level PressureIn, Min Sea Level PressureIn, Max VisibilityMiles, Mean VisibilityMiles, Min VisibilityMiles, Max Wind SpeedMPH, Mean Wind SpeedMPH, Max Gust SpeedMPH,PrecipitationIn, CloudCover, Events, WindDirDegrees
2013-5-1,97,80,62,53,35,16,58,26,5,30.03,29.90,29.73,10,10,10,13,7,16,0.00,0,,20
2013-5-2,91,77,62,28,14,1,22,11,4,30.23,30.12,30.04,10,9,5,20,11,24,0.00,0,,338
2013-5-3,96,76,57,32,18,4,25,11,6,30.02,29.89,29.76,10,10,10,10,6,,0.00,2,,254
2013-5-4,98,80,63,31,23,10,25,13,4,29.74,29.69,29.62,10,10,5,31,10,40,0.00,0,,231
2013-5-5,87,76,66,48,35,23,52,25,15,29.88,29.82,29.75,10,10,9,31,19,43,0.00,1,Rain,267
2013-5-6,82,73,64,50,48,45,54,44,29,29.99,29.94,29.88,10,10,9,34,22,43,0.00,1,,257
2013-5-7,78,71,64,50,44,38,60,40,24,30.04,29.99,29.95,10,10,10,26,20,39,0.00,2,,243
2013-5-8,84,71,60,46,41,36,52,35,19,30.07,30.01,29.94,10,10,9,20,13,,0.00,2,,246
2013-5-9,89,76,63,50,43,33,52,34,15,30.02,29.97,29.87,10,10,10,20,12,17,0.00,1,,248
2013-5-10,96,79,63,48,42,35,54,29,12,30.02,29.97,29.92,10,10,10,13,7,,0.00,0,,251
2013-5-11,102,85,68,47,39,30,42,22,8,30.03,29.98,29.93,10,10,10,10,6,20,0.00,0,,320
2013-5-12,102,85,68,43,35,28,40,18,7,30.06,29.97,29.89,10,10,10,9,5,,0.00,0,,228
2013-5-13,107,88,71,44,37,32,26,17,8,29.96,29.89,29.80,10,10,10,9,6,,0.00,0,,173
2013-5-14,109,90,73,57,35,14,34,17,6,29.89,29.83,29.77,10,10,9,23,10,29,0.00,0,,221
2013-5-15,102,88,75,41,32,21,23,15,8,29.92,29.85,29.78,10,10,9,24,17,36,0.00,0,,223
2013-5-16,102,85,68,59,36,14,65,22,4,29.84,29.78,29.70,10,10,6,26,14,31,0.00,0,,224
2013-5-17,93,82,71,47,41,34,41,25,17,29.88,29.82,29.75,10,8,2,33,18,40,0.00,2,,253
2013-5-18,95,80,68,46,42,33,45,29,12,29.95,29.88,29.82,10,10,10,20,12,,0.00,0,,251
2013-5-19,97,80,64,48,44,38,50,28,14,29.91,29.83,29.75,10,10,6,8,5,,0.00,0,,185
2013-5-20,98,81,64,56,39,25,65,26,8,29.95,29.87,29.82,10,10,9,14,6,20,0.00,0,,313
2013-5-21,102,84,66,43,35,29,30,17,9,29.87,29.78,29.65,10,10,9,21,7,29,0.00,2,,247
2013-5-22,102,88,73,41,31,22,23,15,7,29.73,29.68,29.62,10,10,7,29,13,38,0.00,0,,239
2013-5-23,96,82,70,33,20,0,22,12,4,29.81,29.75,29.66,10,9,2,36,26,44,0.00,0,,248
2013-5-24,93,76,60,37,27,18,30,16,7,29.90,29.84,29.78,10,10,10,22,10,,0.00,0,,245
2013-5-25,97,81,66,44,28,16,30,15,9,29.92,29.86,29.80,10,10,10,22,12,29,0.00,1,,225
2013-5-26,97,83,70,35,29,20,21,15,8,29.94,29.87,29.81,10,10,10,31,18,38,0.00,0,,246
2013-5-27,96,84,72,45,37,33,28,20,12,29.87,29.80,29.70,10,10,10,23,13,30,0.00,0,,267
2013-5-28,99,87,75,50,44,39,39,25,14,29.72,29.66,29.59,10,10,10,23,14,32,0.00,1,,249
2013-5-29,100,82,64,56,49,45,54,32,18,29.74,29.66,29.58,10,10,10,20,6,26,0.00,0,,173
2013-5-30,98,82,66,64,57,44,79,45,22,29.80,29.73,29.68,10,10,7,12,7,,0.00,0,,130
2013-5-31,99,82,66,64,55,40,84,45,13,29.87,29.79,29.73,10,10,10,7,3,,0.00,0,,108